Time;durP1;ratioP1;P1;durP2;ratioP2;P2;SDS_P1;SDS_P2;PMS_P1;PMS_P2;Temp;Humidity;BMP_temperature;BMP_pressure;BME280_temperature;BME280_humidity;BME280_pressure;Samples;Min_cycle;Max_cycle;Signal;HPM_P1;HPM_P2
2021/10/24 00:00:46;;;;;;;7.03;4.70;;;;;;;;;;5021429;28;20229;-77
2021/10/24 00:03:12;;;;;;;5.00;3.70;;;;;;;;;;5017907;28;20182;-76
2021/10/24 00:05:38;;;;;;;5.90;3.88;;;;;;;;;;5019270;28;20182;-77
2021/10/24 00:08:04;;;;;;;5.70;4.78;;;;;;;;;;5021581;28;20174;-77
2021/10/24 00:10:30;;;;;;;5.18;3.95;;;;;;;;;;5018638;28;20218;-77
2021/10/24 00:12:56;;;;;;;5.57;5.07;;;;;;;;;;5020849;28;20258;-77
2021/10/24 00:15:22;;;;;;;5.40;4.45;;;;;;;;;;5018483;28;20695;-77
2021/10/24 00:17:48;;;;;;;5.85;4.38;;;;;;;;;;5018885;28;20193;-77
2021/10/24 00:20:15;;;;;;;4.43;3.88;;;;;;;;;;5014196;28;20202;-77
2021/10/24 00:22:41;;;;;;;4.72;4.15;;;;;;;;;;5023733;28;20648;-77
2021/10/24 00:25:07;;;;;;;5.63;4.05;;;;;;;;;;5020805;28;20182;-77
2021/10/24 00:27:34;;;;;;;6.00;4.20;;;;;;;;;;5019809;28;20183;-77
2021/10/24 00:30:00;;;;;;;7.25;4.25;;;;;;;;;;5018210;28;20185;-77
2021/10/24 00:32:26;;;;;;;4.45;3.80;;;;;;;;;;5018163;28;20624;-76
2021/10/24 00:34:52;;;;;;;6.97;4.10;;;;;;;;;;5014868;28;20194;-76
2021/10/24 00:37:18;;;;;;;4.32;3.85;;;;;;;;;;5011180;28;20191;-77
2021/10/24 00:39:45;;;;;;;6.03;4.00;;;;;;;;;;5019852;28;20210;-77
2021/10/24 00:42:11;;;;;;;4.15;3.75;;;;;;;;;;5019891;28;20190;-77
2021/10/24 00:44:37;;;;;;;4.18;3.75;;;;;;;;;;5022221;28;20230;-76
2021/10/24 00:47:05;;;;;;;5.10;3.00;;;;;;;;;;5021243;28;20717;-76
2021/10/24 00:49:31;;;;;;;4.30;3.60;;;;;;;;;;5022330;28;20643;-76
2021/10/24 00:51:57;;;;;;;4.47;3.97;;;;;;;;;;5014921;28;20189;-76
2021/10/24 00:54:24;;;;;;;7.22;3.88;;;;;;;;;;5021854;28;20170;-76
2021/10/24 00:56:53;;;;;;;5.13;3.95;;;;;;;;;;5022246;28;20205;-77
2021/10/24 00:59:19;;;;;;;3.50;3.20;;;;;;;;;;5030586;28;20242;-76
2021/10/24 01:01:45;;;;;;;5.28;3.67;;;;;;;;;;5020171;28;20233;-76
2021/10/24 01:04:12;;;;;;;6.53;3.97;;;;;;;;;;5022668;28;20530;-76
2021/10/24 01:06:39;;;;;;;4.07;3.58;;;;;;;;;;5024039;28;20655;-77
2021/10/24 01:09:06;;;;;;;4.90;3.58;;;;;;;;;;5021388;28;20543;-76
2021/10/24 01:11:32;;;;;;;4.72;4.20;;;;;;;;;;5026444;28;20174;-76
2021/10/24 01:13:59;;;;;;;4.78;3.85;;;;;;;;;;5021343;28;20198;-76
2021/10/24 01:16:25;;;;;;;4.20;3.33;;;;;;;;;;5019920;28;20187;-76
2021/10/24 01:18:51;;;;;;;4.30;3.90;;;;;;;;;;5025511;28;20217;-76
2021/10/24 01:21:17;;;;;;;5.70;4.32;;;;;;;;;;5036195;28;20229;-76
2021/10/24 01:23:43;;;;;;;3.47;3.10;;;;;;;;;;5022492;28;20188;-76
2021/10/24 01:26:09;;;;;;;5.30;3.75;;;;;;;;;;5033894;28;20186;-76
2021/10/24 01:28:35;;;;;;;3.95;3.20;;;;;;;;;;5018290;28;20183;-76
2021/10/24 01:31:01;;;;;;;4.07;3.30;;;;;;;;;;5024741;28;20270;-76
2021/10/24 01:33:28;;;;;;;3.38;3.08;;;;;;;;;;5021802;28;20269;-76
2021/10/24 01:35:55;;;;;;;4.15;3.42;;;;;;;;;;5027235;28;20211;-77
2021/10/24 01:38:22;;;;;;;4.18;3.50;;;;;;;;;;5021475;28;20251;-77
2021/10/24 01:40:48;;;;;;;4.32;3.47;;;;;;;;;;5017218;28;20213;-76
2021/10/24 01:43:14;;;;;;;5.43;3.70;;;;;;;;;;5022053;28;20199;-77
2021/10/24 01:45:40;;;;;;;7.57;3.40;;;;;;;;;;5023190;28;20253;-77
2021/10/24 01:48:06;;;;;;;3.20;2.90;;;;;;;;;;5029352;28;20178;-77
2021/10/24 01:50:32;;;;;;;7.90;3.40;;;;;;;;;;5025592;28;20527;-76
2021/10/24 01:52:58;;;;;;;6.22;3.45;;;;;;;;;;5020272;28;20551;-76
2021/10/24 01:55:24;;;;;;;3.75;3.45;;;;;;;;;;5021231;28;20557;-76
2021/10/24 01:57:51;;;;;;;4.53;3.53;;;;;;;;;;5024595;28;20186;-76
2021/10/24 02:00:18;;;;;;;6.65;3.65;;;;;;;;;;5020224;28;20205;-76
2021/10/24 02:02:44;;;;;;;7.25;3.63;;;;;;;;;;5025064;28;20205;-76
2021/10/24 02:05:10;;;;;;;3.42;2.80;;;;;;;;;;5023880;28;20183;-77
2021/10/24 02:07:37;;;;;;;4.00;3.00;;;;;;;;;;5020342;28;20223;-76
2021/10/24 02:10:05;;;;;;;4.15;3.15;;;;;;;;;;5022561;28;20526;-76
2021/10/24 02:12:31;;;;;;;6.68;3.72;;;;;;;;;;5025127;28;20518;-76
2021/10/24 02:14:57;;;;;;;4.15;3.50;;;;;;;;;;5020237;28;20209;-76
2021/10/24 02:17:23;;;;;;;3.83;3.15;;;;;;;;;;5026100;28;20174;-77
2021/10/24 02:19:49;;;;;;;4.32;3.30;;;;;;;;;;5025031;28;20233;-76
2021/10/24 02:22:15;;;;;;;3.50;3.20;;;;;;;;;;5021471;28;20179;-77
2021/10/24 02:24:41;;;;;;;4.35;3.20;;;;;;;;;;5024664;28;20260;-77
2021/10/24 02:27:07;;;;;;;5.80;3.67;;;;;;;;;;5019826;28;20185;-77
2021/10/24 02:29:33;;;;;;;4.32;3.33;;;;;;;;;;5021025;28;20261;-76
2021/10/24 02:31:59;;;;;;;4.55;3.08;;;;;;;;;;5016816;28;20186;-77
2021/10/24 02:34:25;;;;;;;3.53;2.78;;;;;;;;;;5030300;28;20206;-76
2021/10/24 02:36:51;;;;;;;4.78;3.67;;;;;;;;;;5038865;28;20206;-77
2021/10/24 02:39:18;;;;;;;5.55;3.08;;;;;;;;;;5013250;28;20186;-76
2021/10/24 02:41:43;;;;;;;8.40;3.95;;;;;;;;;;5024525;28;20516;-76
2021/10/24 02:44:09;;;;;;;4.13;3.65;;;;;;;;;;5023094;28;20190;-77
2021/10/24 02:46:35;;;;;;;5.80;2.90;;;;;;;;;;5021452;28;20191;-76
2021/10/24 02:49:01;;;;;;;9.10;3.50;;;;;;;;;;5022878;28;20238;-76
2021/10/24 02:51:27;;;;;;;7.50;3.77;;;;;;;;;;5021704;28;20182;-76
2021/10/24 02:53:53;;;;;;;5.83;3.47;;;;;;;;;;5019576;28;20436;-76
2021/10/24 02:56:19;;;;;;;4.78;3.63;;;;;;;;;;5019725;28;20427;-77
2021/10/24 02:58:45;;;;;;;4.00;3.60;;;;;;;;;;5017366;28;20195;-77
2021/10/24 03:01:11;;;;;;;4.63;3.42;;;;;;;;;;5013238;28;20249;-76
2021/10/24 03:03:37;;;;;;;7.57;3.72;;;;;;;;;;5019996;28;20182;-76
2021/10/24 03:06:03;;;;;;;4.40;3.63;;;;;;;;;;5019177;28;20224;-77
2021/10/24 03:08:29;;;;;;;4.28;3.65;;;;;;;;;;5039595;28;20457;-77
2021/10/24 03:10:55;;;;;;;5.38;3.55;;;;;;;;;;5022987;28;20209;-76
2021/10/24 03:13:21;;;;;;;9.68;4.13;;;;;;;;;;5020020;28;20194;-77
2021/10/24 03:15:47;;;;;;;6.95;4.10;;;;;;;;;;5023271;28;20256;-77
2021/10/24 03:18:13;;;;;;;4.57;4.18;;;;;;;;;;5018707;28;20567;-77
2021/10/24 03:20:39;;;;;;;9.77;4.15;;;;;;;;;;5010542;28;20210;-77
2021/10/24 03:23:05;;;;;;;5.25;4.57;;;;;;;;;;5017810;28;20210;-77
2021/10/24 03:25:31;;;;;;;5.30;4.32;;;;;;;;;;5022544;28;20490;-77
2021/10/24 03:27:58;;;;;;;5.47;4.40;;;;;;;;;;5022708;28;20188;-77
2021/10/24 03:30:24;;;;;;;4.40;3.60;;;;;;;;;;5020013;28;20194;-76
2021/10/24 03:32:50;;;;;;;4.10;3.50;;;;;;;;;;5018983;28;20174;-77
2021/10/24 03:35:16;;;;;;;4.25;3.88;;;;;;;;;;5018749;28;20261;-76
2021/10/24 03:37:42;;;;;;;4.05;3.65;;;;;;;;;;5013787;28;20198;-77
2021/10/24 03:40:09;;;;;;;5.97;4.20;;;;;;;;;;5022790;28;20203;-77
2021/10/24 03:42:35;;;;;;;4.90;3.85;;;;;;;;;;5022923;28;20186;-77
2021/10/24 03:45:01;;;;;;;5.30;3.75;;;;;;;;;;5017948;28;20210;-77
2021/10/24 03:47:27;;;;;;;5.47;4.30;;;;;;;;;;5018882;28;20187;-77
2021/10/24 03:49:53;;;;;;;9.65;4.07;;;;;;;;;;5018407;28;20320;-77
2021/10/24 03:52:19;;;;;;;6.10;3.80;;;;;;;;;;5019926;28;20187;-77
2021/10/24 03:54:45;;;;;;;4.00;3.67;;;;;;;;;;5020562;28;20197;-77
2021/10/24 03:57:11;;;;;;;3.85;3.55;;;;;;;;;;5026926;28;20214;-77
2021/10/24 03:59:37;;;;;;;4.13;3.75;;;;;;;;;;5019548;28;20175;-77
2021/10/24 04:02:03;;;;;;;5.32;3.88;;;;;;;;;;5016477;28;20635;-77
2021/10/24 04:04:29;;;;;;;4.68;3.97;;;;;;;;;;5018325;28;20187;-77
2021/10/24 04:06:55;;;;;;;4.65;4.10;;;;;;;;;;5018179;28;20269;-77
2021/10/24 04:09:21;;;;;;;6.32;4.20;;;;;;;;;;5016746;28;20182;-77
2021/10/24 04:11:48;;;;;;;6.05;4.20;;;;;;;;;;5023400;28;20213;-77
2021/10/24 04:14:14;;;;;;;3.90;3.50;;;;;;;;;;5021403;28;20269;-77
2021/10/24 04:16:40;;;;;;;4.85;4.38;;;;;;;;;;5016213;28;20190;-76
2021/10/24 04:19:05;;;;;;;4.43;4.03;;;;;;;;;;5020578;28;20179;-76
2021/10/24 04:21:31;;;;;;;4.18;3.55;;;;;;;;;;5012437;28;20202;-76
2021/10/24 04:23:58;;;;;;;9.13;4.93;;;;;;;;;;5018487;28;20241;-77
2021/10/24 04:26:24;;;;;;;7.20;4.45;;;;;;;;;;5018537;28;20253;-77
2021/10/24 04:28:50;;;;;;;7.32;3.88;;;;;;;;;;5021474;28;20179;-77
2021/10/24 04:31:16;;;;;;;4.88;3.75;;;;;;;;;;5019490;28;20202;-77
2021/10/24 04:33:42;;;;;;;3.67;3.15;;;;;;;;;;5019564;28;20187;-77
2021/10/24 04:36:08;;;;;;;5.72;3.83;;;;;;;;;;5017295;28;20257;-77
2021/10/24 04:38:34;;;;;;;6.22;3.65;;;;;;;;;;5022973;28;20186;-77
2021/10/24 04:41:00;;;;;;;4.43;4.03;;;;;;;;;;5017230;28;20201;-77
2021/10/24 04:43:26;;;;;;;3.50;3.05;;;;;;;;;;5021184;28;20186;-77
2021/10/24 04:45:52;;;;;;;3.95;3.55;;;;;;;;;;5017765;28;20219;-77
2021/10/24 04:48:18;;;;;;;3.80;3.50;;;;;;;;;;5017660;28;20229;-77
2021/10/24 04:50:45;;;;;;;3.97;3.65;;;;;;;;;;5023375;28;20174;-76
2021/10/24 04:53:10;;;;;;;4.00;3.70;;;;;;;;;;5017079;28;20206;-76
2021/10/24 04:55:37;;;;;;;3.78;3.47;;;;;;;;;;5021564;28;20183;-76
2021/10/24 04:58:03;;;;;;;4.55;3.90;;;;;;;;;;5019588;28;20191;-77
2021/10/24 05:00:29;;;;;;;4.40;4.00;;;;;;;;;;5022303;28;20226;-76
2021/10/24 05:02:55;;;;;;;5.55;3.17;;;;;;;;;;5026637;28;20179;-76
2021/10/24 05:05:21;;;;;;;7.18;3.55;;;;;;;;;;5032490;28;20242;-77
2021/10/24 05:07:47;;;;;;;4.55;3.65;;;;;;;;;;5017083;28;20209;-76
2021/10/24 05:10:13;;;;;;;5.40;3.23;;;;;;;;;;5021226;28;20530;-76
2021/10/24 05:12:39;;;;;;;4.05;3.25;;;;;;;;;;5021951;28;20537;-77
2021/10/24 05:15:05;;;;;;;4.75;3.80;;;;;;;;;;5026740;28;20171;-77
2021/10/24 05:17:31;;;;;;;4.13;3.20;;;;;;;;;;5018054;28;20182;-77
2021/10/24 05:19:57;;;;;;;3.85;2.97;;;;;;;;;;5021011;28;20211;-77
2021/10/24 05:22:24;;;;;;;5.03;3.92;;;;;;;;;;5011646;28;20183;-77
2021/10/24 05:24:50;;;;;;;4.22;3.75;;;;;;;;;;5021506;28;20179;-77
2021/10/24 05:27:16;;;;;;;4.00;3.38;;;;;;;;;;5027488;28;20197;-77
2021/10/24 05:29:42;;;;;;;4.93;3.10;;;;;;;;;;5022156;28;20163;-77
2021/10/24 05:32:08;;;;;;;7.43;4.38;;;;;;;;;;5022958;28;20183;-76
2021/10/24 05:34:35;;;;;;;4.40;3.40;;;;;;;;;;5010734;28;20183;-76
2021/10/24 05:37:01;;;;;;;3.45;2.70;;;;;;;;;;5024369;28;20667;-76
2021/10/24 05:39:27;;;;;;;4.15;3.38;;;;;;;;;;5022430;28;20186;-76
2021/10/24 05:41:53;;;;;;;3.50;3.20;;;;;;;;;;5020447;28;20178;-76
2021/10/24 05:44:22;;;;;;;3.65;2.85;;;;;;;;;;5023590;28;20191;-76
2021/10/24 05:46:48;;;;;;;4.72;3.45;;;;;;;;;;5020614;28;20544;-76
2021/10/24 05:49:15;;;;;;;5.57;3.03;;;;;;;;;;5022998;28;20175;-77
2021/10/24 05:51:41;;;;;;;4.05;3.40;;;;;;;;;;5012922;28;20221;-77
2021/10/24 05:54:07;;;;;;;2.88;2.65;;;;;;;;;;5020021;28;20182;-76
2021/10/24 05:56:33;;;;;;;3.60;3.30;;;;;;;;;;5024864;28;20209;-76
2021/10/24 05:58:59;;;;;;;3.40;3.05;;;;;;;;;;5019766;28;20190;-76
2021/10/24 06:01:26;;;;;;;3.10;2.80;;;;;;;;;;5020510;28;20520;-76
2021/10/24 06:03:52;;;;;;;5.00;3.83;;;;;;;;;;5023383;28;20442;-76
2021/10/24 06:06:18;;;;;;;3.10;2.80;;;;;;;;;;5035266;28;20183;-77
2021/10/24 06:08:44;;;;;;;7.15;3.60;;;;;;;;;;5021400;28;20181;-76
2021/10/24 06:11:14;;;;;;;3.60;3.22;;;;;;;;;;5020241;28;20182;-76
2021/10/24 06:13:43;;;;;;;4.00;3.33;;;;;;;;;;5018393;28;20209;-77
2021/10/24 06:16:09;;;;;;;2.90;2.70;;;;;;;;;;5021397;28;20269;-76
2021/10/24 06:18:36;;;;;;;4.72;2.58;;;;;;;;;;5021257;28;20382;-76
2021/10/24 06:21:03;;;;;;;4.10;3.00;;;;;;;;;;5029171;28;20765;-76
2021/10/24 06:23:29;;;;;;;2.70;2.50;;;;;;;;;;5020851;28;20174;-77
2021/10/24 06:25:55;;;;;;;5.65;3.03;;;;;;;;;;5018129;28;20213;-76
2021/10/24 06:28:21;;;;;;;3.25;2.83;;;;;;;;;;5021091;28;20242;-76
2021/10/24 06:30:47;;;;;;;3.72;3.10;;;;;;;;;;5023462;28;20209;-77
2021/10/24 06:33:13;;;;;;;4.15;2.53;;;;;;;;;;5018664;28;20187;-77
2021/10/24 06:35:39;;;;;;;4.00;3.20;;;;;;;;;;5019869;28;20174;-77
2021/10/24 06:38:05;;;;;;;3.40;3.10;;;;;;;;;;5017775;28;20217;-77
2021/10/24 06:40:31;;;;;;;5.10;3.60;;;;;;;;;;5018036;28;20203;-76
2021/10/24 06:42:57;;;;;;;6.40;3.20;;;;;;;;;;5018279;28;20186;-77
2021/10/24 06:45:25;;;;;;;3.03;2.75;;;;;;;;;;5018875;28;20707;-77
2021/10/24 06:47:51;;;;;;;5.13;3.28;;;;;;;;;;5027905;28;20178;-76
2021/10/24 06:50:17;;;;;;;3.08;2.78;;;;;;;;;;5019493;28;20241;-76
2021/10/24 06:52:43;;;;;;;3.47;2.53;;;;;;;;;;5022368;28;20225;-77
2021/10/24 06:55:09;;;;;;;7.28;5.97;;;;;;;;;;5021357;28;20178;-77
2021/10/24 06:57:52;;;;;;;8.15;5.65;;;;;;;;;;5019408;28;20214;-77
2021/10/24 07:00:22;;;;;;;6.53;5.32;;;;;;;;;;5022928;28;20198;-77
2021/10/24 07:02:49;;;;;;;6.20;5.70;;;;;;;;;;5020351;28;20175;-77
2021/10/24 07:05:15;;;;;;;7.75;6.95;;;;;;;;;;5013497;28;20173;-77
2021/10/24 07:07:41;;;;;;;10.18;8.73;;;;;;;;;;5017442;28;20190;-77
2021/10/24 07:10:08;;;;;;;13.35;11.98;;;;;;;;;;5021832;28;20186;-77
2021/10/24 07:12:34;;;;;;;12.18;10.93;;;;;;;;;;5022424;28;20186;-77
2021/10/24 07:15:00;;;;;;;7.50;6.90;;;;;;;;;;5018171;28;20203;-77
2021/10/24 07:17:26;;;;;;;7.68;7.00;;;;;;;;;;5018415;28;20189;-77
2021/10/24 07:19:52;;;;;;;6.05;5.45;;;;;;;;;;5017682;28;20341;-77
2021/10/24 07:22:18;;;;;;;7.13;6.18;;;;;;;;;;5019519;28;20617;-77
2021/10/24 07:24:44;;;;;;;10.43;7.70;;;;;;;;;;5020708;28;20198;-77
2021/10/24 07:27:10;;;;;;;7.57;6.63;;;;;;;;;;5017827;28;20223;-77
2021/10/24 07:29:36;;;;;;;6.72;6.18;;;;;;;;;;5018856;28;20228;-77
2021/10/24 07:32:02;;;;;;;5.68;5.18;;;;;;;;;;5017371;28;20186;-77
2021/10/24 07:34:28;;;;;;;8.10;6.03;;;;;;;;;;5021830;28;20190;-77
2021/10/24 07:36:54;;;;;;;6.70;4.90;;;;;;;;;;5022116;28;20185;-77
2021/10/24 07:39:20;;;;;;;9.30;4.50;;;;;;;;;;5017785;28;20179;-77
2021/10/24 07:41:46;;;;;;;5.38;4.45;;;;;;;;;;5027931;28;20217;-77
2021/10/24 07:44:17;;;;;;;6.28;4.88;;;;;;;;;;5015600;28;20245;-77
2021/10/24 07:46:43;;;;;;;6.53;5.10;;;;;;;;;;5017211;28;20198;-77
2021/10/24 07:49:09;;;;;;;7.63;4.90;;;;;;;;;;5020607;28;20534;-76
2021/10/24 07:51:35;;;;;;;6.65;5.15;;;;;;;;;;5022535;28;20186;-77
2021/10/24 07:54:02;;;;;;;6.00;5.38;;;;;;;;;;5026385;28;20269;-77
2021/10/24 07:56:29;;;;;;;11.98;4.75;;;;;;;;;;5018329;28;20510;-76
2021/10/24 07:58:56;;;;;;;7.47;4.80;;;;;;;;;;5016423;28;20245;-77
2021/10/24 08:01:22;;;;;;;4.88;4.43;;;;;;;;;;5017837;28;20203;-77
2021/10/24 08:03:48;;;;;;;7.10;5.30;;;;;;;;;;5020943;28;20190;-77
2021/10/24 08:06:16;;;;;;;6.25;5.65;;;;;;;;;;5026588;28;20577;-77
2021/10/24 08:08:42;;;;;;;5.75;4.95;;;;;;;;;;5022109;28;20170;-77
2021/10/24 08:11:08;;;;;;;7.95;6.57;;;;;;;;;;5016826;28;20198;-77
2021/10/24 08:13:34;;;;;;;8.38;6.05;;;;;;;;;;5020994;28;20240;-77
2021/10/24 08:16:00;;;;;;;7.50;6.30;;;;;;;;;;5018699;28;20191;-77
2021/10/24 08:18:26;;;;;;;7.75;6.53;;;;;;;;;;5022338;28;20822;-76
2021/10/24 08:20:52;;;;;;;8.43;7.10;;;;;;;;;;5026201;28;20222;-77
2021/10/24 08:23:19;;;;;;;8.45;6.57;;;;;;;;;;5028759;28;20418;-76
2021/10/24 08:25:45;;;;;;;7.82;6.95;;;;;;;;;;5027660;28;20306;-77
2021/10/24 08:28:12;;;;;;;8.40;7.55;;;;;;;;;;5019397;28;20238;-77
2021/10/24 08:30:38;;;;;;;8.32;7.30;;;;;;;;;;5019301;28;20183;-77
2021/10/24 08:33:04;;;;;;;7.85;6.60;;;;;;;;;;5016386;28;20202;-77
2021/10/24 08:35:30;;;;;;;10.07;7.45;;;;;;;;;;5017811;28;20181;-77
2021/10/24 08:37:57;;;;;;;7.35;6.40;;;;;;;;;;5020769;28;20190;-77
2021/10/24 08:40:22;;;;;;;7.55;6.72;;;;;;;;;;5020799;28;20213;-77
2021/10/24 08:42:57;;;;;;;7.97;7.20;;;;;;;;;;5020755;28;20178;-77
2021/10/24 08:45:23;;;;;;;8.85;7.38;;;;;;;;;;5022404;28;20219;-77
2021/10/24 08:47:49;;;;;;;7.80;7.07;;;;;;;;;;5017285;28;20175;-77
2021/10/24 08:50:16;;;;;;;9.40;7.72;;;;;;;;;;5017038;28;20182;-77
2021/10/24 08:52:44;;;;;;;6.47;5.18;;;;;;;;;;5016214;28;20187;-78
2021/10/24 08:55:11;;;;;;;7.28;5.28;;;;;;;;;;5019556;28;20198;-75
2021/10/24 08:57:37;;;;;;;6.10;4.43;;;;;;;;;;5020499;28;20187;-77
2021/10/24 09:00:05;;;;;;;5.80;4.30;;;;;;;;;;5016906;28;20222;-76
2021/10/24 09:02:50;;;;;;;6.38;4.10;;;;;;;;;;5034503;28;20211;-76
2021/10/24 09:05:27;;;;;;;5.80;3.80;;;;;;;;;;5020964;28;20167;-78
2021/10/24 09:07:57;;;;;;;7.60;4.03;;;;;;;;;;5019813;28;20178;-77
2021/10/24 09:10:52;;;;;;;6.68;3.95;;;;;;;;;;5021549;28;20183;-78
2021/10/24 09:13:21;;;;;;;4.90;4.10;;;;;;;;;;5013168;28;20267;-77
2021/10/24 09:15:49;;;;;;;5.82;4.32;;;;;;;;;;5024572;28;20190;-76
2021/10/24 09:18:16;;;;;;;5.00;4.03;;;;;;;;;;5019830;28;20201;-78
2021/10/24 09:20:42;;;;;;;10.35;4.65;;;;;;;;;;5016755;28;20198;-77
2021/10/24 09:23:09;;;;;;;9.32;4.72;;;;;;;;;;5019992;28;20188;-76
2021/10/24 09:25:47;;;;;;;7.95;4.40;;;;;;;;;;5020707;28;20235;-76
2021/10/24 09:28:14;;;;;;;5.85;4.82;;;;;;;;;;5023602;28;20179;-77
2021/10/24 09:30:40;;;;;;;5.40;4.55;;;;;;;;;;5025447;28;20186;-80
2021/10/24 09:33:11;;;;;;;6.00;4.13;;;;;;;;;;5027412;28;20194;-76
2021/10/24 09:35:40;;;;;;;11.73;5.18;;;;;;;;;;5021095;28;20172;-76
2021/10/24 09:38:14;;;;;;;12.63;5.57;;;;;;;;;;5019434;28;20254;-76
2021/10/24 09:40:40;;;;;;;7.57;4.35;;;;;;;;;;5025542;28;20241;-77
2021/10/24 09:43:07;;;;;;;5.53;4.80;;;;;;;;;;5023007;28;20681;-77
2021/10/24 09:45:33;;;;;;;6.35;4.55;;;;;;;;;;5010002;28;20245;-77
2021/10/24 09:48:14;;;;;;;6.30;4.95;;;;;;;;;;5019040;28;20293;-77
2021/10/24 09:50:51;;;;;;;5.10;4.55;;;;;;;;;;5025235;28;20238;-76
2021/10/24 09:53:18;;;;;;;5.20;4.80;;;;;;;;;;5020170;28;20181;-77
2021/10/24 09:55:46;;;;;;;9.25;5.00;;;;;;;;;;5023822;28;20186;-77
2021/10/24 09:58:12;;;;;;;6.35;4.97;;;;;;;;;;5020542;28;20201;-78
2021/10/24 10:00:39;;;;;;;6.28;4.38;;;;;;;;;;5020897;28;20206;-77
2021/10/24 10:03:08;;;;;;;5.97;4.22;;;;;;;;;;5027427;28;20189;-77
2021/10/24 10:05:36;;;;;;;5.35;4.50;;;;;;;;;;5020473;28;20178;-78
2021/10/24 10:08:03;;;;;;;5.22;4.25;;;;;;;;;;5019501;28;20170;-77
2021/10/24 10:10:30;;;;;;;5.82;4.35;;;;;;;;;;5017947;28;20222;-77
2021/10/24 10:12:59;;;;;;;5.07;4.43;;;;;;;;;;5022899;28;20175;-77
2021/10/24 10:15:30;;;;;;;5.15;4.50;;;;;;;;;;5009487;28;20186;-77
2021/10/24 10:17:57;;;;;;;8.30;5.03;;;;;;;;;;5027641;28;20198;-77
2021/10/24 10:20:23;;;;;;;4.47;4.03;;;;;;;;;;5018958;28;20210;-77
2021/10/24 10:23:05;;;;;;;4.30;3.90;;;;;;;;;;5019292;28;20172;-77
2021/10/24 10:25:38;;;;;;;6.15;3.70;;;;;;;;;;5018883;28;20724;-76
2021/10/24 10:28:05;;;;;;;7.65;4.75;;;;;;;;;;5012630;28;20610;-77
2021/10/24 10:30:44;;;;;;;5.20;3.90;;;;;;;;;;5020439;28;20626;-77
2021/10/24 10:33:30;;;;;;;4.63;3.67;;;;;;;;;;5018131;28;20242;-78
2021/10/24 10:35:57;;;;;;;5.18;4.70;;;;;;;;;;5021011;28;20190;-76
2021/10/24 10:38:36;;;;;;;6.20;4.15;;;;;;;;;;5018644;28;20178;-77
2021/10/24 10:41:02;;;;;;;4.90;3.95;;;;;;;;;;5019171;28;20221;-76
2021/10/24 10:43:29;;;;;;;3.42;3.00;;;;;;;;;;5012394;28;20579;-76
2021/10/24 10:45:56;;;;;;;5.20;3.80;;;;;;;;;;5022919;28;20222;-76
2021/10/24 10:48:24;;;;;;;6.40;4.30;;;;;;;;;;5018094;28;20175;-77
2021/10/24 10:51:02;;;;;;;4.75;4.05;;;;;;;;;;5019904;28;20181;-76
2021/10/24 10:53:31;;;;;;;5.45;4.25;;;;;;;;;;5014549;28;20174;-77
2021/10/24 10:56:05;;;;;;;6.22;4.57;;;;;;;;;;5022264;28;20187;-76
2021/10/24 10:58:34;;;;;;;5.45;3.60;;;;;;;;;;5022392;28;20186;-76
2021/10/24 11:01:00;;;;;;;6.25;5.10;;;;;;;;;;5024899;28;20203;-76
2021/10/24 11:03:44;;;;;;;5.22;4.70;;;;;;;;;;5018682;28;20206;-76
2021/10/24 11:06:11;;;;;;;7.07;4.65;;;;;;;;;;5027437;28;20293;-76
2021/10/24 11:08:48;;;;;;;6.03;4.57;;;;;;;;;;5018939;28;20671;-76
2021/10/24 11:11:14;;;;;;;4.80;4.30;;;;;;;;;;5018005;28;20257;-76
2021/10/24 11:13:42;;;;;;;7.22;5.72;;;;;;;;;;5017171;28;20266;-76
2021/10/24 11:16:26;;;;;;;5.30;4.68;;;;;;;;;;5020345;28;20179;-76
2021/10/24 11:18:52;;;;;;;5.55;4.75;;;;;;;;;;5022543;28;20186;-76
2021/10/24 11:21:28;;;;;;;5.80;5.03;;;;;;;;;;5027396;28;20248;-77
2021/10/24 11:23:57;;;;;;;5.97;4.90;;;;;;;;;;5020069;28;20424;-76
2021/10/24 11:26:24;;;;;;;5.70;5.13;;;;;;;;;;5017489;28;20170;-76
2021/10/24 11:28:50;;;;;;;5.50;4.90;;;;;;;;;;5017404;28;20659;-77
2021/10/24 11:31:19;;;;;;;7.22;5.10;;;;;;;;;;5020329;28;20298;-76
2021/10/24 11:33:49;;;;;;;8.63;4.93;;;;;;;;;;5019705;28;20190;-76
2021/10/24 11:36:19;;;;;;;8.35;4.60;;;;;;;;;;5018130;28;20189;-77
2021/10/24 11:38:45;;;;;;;7.10;4.97;;;;;;;;;;5018581;28;20222;-76
2021/10/24 11:41:19;;;;;;;5.35;4.85;;;;;;;;;;5017072;28;20198;-76
2021/10/24 11:43:45;;;;;;;8.23;5.70;;;;;;;;;;5021966;28;20193;-76
2021/10/24 11:46:11;;;;;;;6.53;5.20;;;;;;;;;;5019975;28;20220;-76
2021/10/24 11:48:38;;;;;;;6.03;4.57;;;;;;;;;;5019163;28;20261;-76
2021/10/24 11:51:08;;;;;;;4.75;4.20;;;;;;;;;;5017708;28;20181;-76
2021/10/24 11:53:38;;;;;;;5.85;4.50;;;;;;;;;;5017147;28;20175;-76
2021/10/24 11:56:06;;;;;;;6.68;5.97;;;;;;;;;;5012882;28;20182;-75
2021/10/24 11:58:42;;;;;;;7.30;6.07;;;;;;;;;;5016688;28;20226;-76
2021/10/24 12:01:09;;;;;;;7.45;5.25;;;;;;;;;;5010948;28;20702;-77
2021/10/24 12:03:35;;;;;;;6.97;5.25;;;;;;;;;;5018274;28;20693;-76
2021/10/24 12:06:02;;;;;;;5.55;5.03;;;;;;;;;;5016969;28;20205;-76
2021/10/24 12:08:48;;;;;;;5.00;4.50;;;;;;;;;;5018060;28;20170;-77
2021/10/24 12:11:32;;;;;;;7.05;4.43;;;;;;;;;;5019059;28;20254;-75
2021/10/24 12:14:02;;;;;;;5.45;3.72;;;;;;;;;;5013417;28;20193;-76
2021/10/24 12:16:29;;;;;;;5.03;3.30;;;;;;;;;;5022214;28;20214;-76
2021/10/24 12:19:09;;;;;;;5.53;4.22;;;;;;;;;;5021453;28;20194;-76
2021/10/24 12:21:35;;;;;;;4.22;3.67;;;;;;;;;;5018546;28;20217;-76
2021/10/24 12:24:18;;;;;;;4.57;3.13;;;;;;;;;;5026672;28;20179;-76
2021/10/24 12:26:44;;;;;;;10.55;4.15;;;;;;;;;;5023239;28;20174;-76
2021/10/24 12:29:14;;;;;;;5.15;3.35;;;;;;;;;;5016360;28;20182;-77
2021/10/24 12:31:40;;;;;;;5.72;3.97;;;;;;;;;;5016510;28;20265;-76
2021/10/24 12:34:11;;;;;;;7.57;3.60;;;;;;;;;;5020449;28;20196;-76
2021/10/24 12:36:39;;;;;;;4.60;3.70;;;;;;;;;;5022490;28;20255;-76
2021/10/24 12:39:06;;;;;;;5.75;3.47;;;;;;;;;;5021009;28;20178;-76
2021/10/24 12:41:33;;;;;;;4.55;2.97;;;;;;;;;;5036913;28;20219;-75
2021/10/24 12:43:59;;;;;;;7.00;3.53;;;;;;;;;;5031846;28;20197;-76
2021/10/24 12:46:29;;;;;;;3.50;3.15;;;;;;;;;;5024774;28;20213;-76
2021/10/24 12:48:55;;;;;;;2.88;2.58;;;;;;;;;;5026014;28;20193;-76
2021/10/24 12:51:29;;;;;;;5.32;3.67;;;;;;;;;;5020830;28;20216;-76
2021/10/24 12:53:59;;;;;;;3.28;2.47;;;;;;;;;;5023078;28;20182;-76
2021/10/24 12:56:26;;;;;;;5.50;3.03;;;;;;;;;;5031299;28;20175;-77
2021/10/24 12:58:53;;;;;;;4.20;3.53;;;;;;;;;;5020736;28;20306;-76
2021/10/24 13:01:20;;;;;;;4.85;2.90;;;;;;;;;;5024191;28;20210;-76
2021/10/24 13:03:46;;;;;;;3.15;2.85;;;;;;;;;;5025169;28;20187;-77
2021/10/24 13:06:12;;;;;;;2.78;2.33;;;;;;;;;;5019862;28;20260;-77
2021/10/24 13:08:38;;;;;;;10.32;3.20;;;;;;;;;;5021859;28;20226;-76
2021/10/24 13:11:04;;;;;;;6.22;3.03;;;;;;;;;;5019835;28;20214;-76
2021/10/24 13:13:30;;;;;;;7.20;3.78;;;;;;;;;;5023551;28;20186;-76
2021/10/24 13:15:56;;;;;;;3.75;2.40;;;;;;;;;;5025264;28;20193;-77
2021/10/24 13:18:22;;;;;;;3.77;2.40;;;;;;;;;;5009622;28;20257;-76
2021/10/24 13:20:57;;;;;;;3.67;2.60;;;;;;;;;;5017437;28;20471;-76
2021/10/24 13:23:24;;;;;;;5.43;2.53;;;;;;;;;;5016492;28;20173;-76
2021/10/24 13:25:50;;;;;;;3.25;2.95;;;;;;;;;;5019329;28;20238;-76
2021/10/24 13:28:17;;;;;;;4.40;2.93;;;;;;;;;;5022317;28;20215;-76
2021/10/24 13:30:43;;;;;;;2.72;2.53;;;;;;;;;;5022093;28;20433;-77
2021/10/24 13:33:09;;;;;;;3.08;2.40;;;;;;;;;;5019573;28;20178;-76
2021/10/24 13:35:35;;;;;;;3.10;2.25;;;;;;;;;;5025094;28;20203;-76
2021/10/24 13:38:01;;;;;;;3.50;2.63;;;;;;;;;;5023923;28;20269;-76
2021/10/24 13:40:27;;;;;;;3.47;2.10;;;;;;;;;;5019616;28;20481;-75
2021/10/24 13:42:53;;;;;;;3.55;2.78;;;;;;;;;;5022900;28;20334;-76
2021/10/24 13:45:20;;;;;;;2.97;2.50;;;;;;;;;;5019823;28;20302;-76
2021/10/24 13:47:46;;;;;;;7.55;2.85;;;;;;;;;;5020199;28;20179;-75
2021/10/24 13:50:12;;;;;;;3.35;2.50;;;;;;;;;;5019263;28;20209;-76
2021/10/24 13:52:38;;;;;;;4.97;2.38;;;;;;;;;;5019245;28;20214;-76
2021/10/24 13:55:06;;;;;;;5.72;2.50;;;;;;;;;;5021362;28;20766;-76
2021/10/24 13:57:32;;;;;;;3.38;2.65;;;;;;;;;;5024870;28;20195;-76
2021/10/24 13:59:58;;;;;;;2.53;2.13;;;;;;;;;;5028883;28;20195;-76
2021/10/24 14:02:24;;;;;;;2.27;2.00;;;;;;;;;;5018981;28;20455;-76
2021/10/24 14:04:50;;;;;;;4.13;2.27;;;;;;;;;;5019108;28;20440;-77
2021/10/24 14:07:16;;;;;;;2.80;1.90;;;;;;;;;;5020314;28;20434;-77
2021/10/24 14:09:43;;;;;;;2.63;2.13;;;;;;;;;;5021640;28;20442;-77
2021/10/24 14:12:10;;;;;;;2.43;1.90;;;;;;;;;;5028401;28;20438;-77
2021/10/24 14:14:36;;;;;;;5.20;2.33;;;;;;;;;;5024108;28;20898;-77
2021/10/24 14:17:02;;;;;;;2.13;1.93;;;;;;;;;;5018651;28;20487;-77
2021/10/24 14:19:28;;;;;;;2.87;2.53;;;;;;;;;;5019397;28;20449;-76
2021/10/24 14:21:55;;;;;;;2.33;1.93;;;;;;;;;;5024160;28;20472;-77
2021/10/24 14:24:21;;;;;;;2.43;1.90;;;;;;;;;;5017476;28;20452;-77
2021/10/24 14:26:48;;;;;;;2.03;1.57;;;;;;;;;;5015756;28;20429;-76
2021/10/24 14:29:14;;;;;;;2.20;1.90;;;;;;;;;;5014338;28;20437;-77
2021/10/24 14:31:41;;;;;;;2.40;2.20;;;;;;;;;;5017105;28;20453;-77
2021/10/24 14:34:08;;;;;;;4.27;2.07;;;;;;;;;;5021411;28;20864;-76
2021/10/24 14:36:34;;;;;;;3.07;2.20;;;;;;;;;;5022929;28;20443;-77
2021/10/24 14:39:00;;;;;;;2.67;1.90;;;;;;;;;;5018866;28;20421;-76
2021/10/24 14:41:26;;;;;;;2.57;2.00;;;;;;;;;;5019170;28;20465;-76
2021/10/24 14:43:52;;;;;;;4.30;2.30;;;;;;;;;;5017621;28;20452;-76